Time;durP1;ratioP1;P1;durP2;ratioP2;P2;SDS_P1;SDS_P2;PMS_P1;PMS_P2;Temp;Humidity;BMP_temperature;BMP_pressure;BME280_temperature;BME280_humidity;BME280_pressure;Samples;Min_cycle;Max_cycle;Signal;HPM_P1;HPM_P2
2022/06/24 00:01:40;;;;;;;20.88;13.82;;;;;;;;;;5013832;28;20267;-58
2022/06/24 00:04:06;;;;;;;22.23;14.32;;;;;;;;;;4994513;28;20180;-58
2022/06/24 00:06:49;;;;;;;23.83;14.32;;;;;;;;;;4996331;28;20220;-58
2022/06/24 00:09:15;;;;;;;23.17;15.00;;;;;;;;;;5013318;28;20290;-58
2022/06/24 00:11:42;;;;;;;21.05;14.70;;;;;;;;;;5013767;28;20180;-58
2022/06/24 00:14:10;;;;;;;27.05;16.13;;;;;;;;;;4994174;28;20218;-58
2022/06/24 00:16:54;;;;;;;23.80;15.65;;;;;;;;;;5013779;28;20263;-58
2022/06/24 00:19:20;;;;;;;22.33;16.48;;;;;;;;;;5013593;28;20185;-58
2022/06/24 00:21:59;;;;;;;27.40;16.80;;;;;;;;;;5013462;28;20222;-58
2022/06/24 00:24:25;;;;;;;27.63;16.83;;;;;;;;;;4996134;28;20230;-59
2022/06/24 00:26:51;;;;;;;29.83;16.80;;;;;;;;;;5012819;28;20176;-59
2022/06/24 00:29:19;;;;;;;28.45;17.23;;;;;;;;;;5013327;28;20335;-59
2022/06/24 00:32:00;;;;;;;25.00;16.98;;;;;;;;;;4995133;28;20204;-59
2022/06/24 00:34:26;;;;;;;25.17;17.48;;;;;;;;;;5012768;28;20232;-59
2022/06/24 00:36:52;;;;;;;23.67;17.50;;;;;;;;;;4995549;28;20203;-58
2022/06/24 00:39:18;;;;;;;20.33;15.60;;;;;;;;;;5013740;28;20176;-58
2022/06/24 00:41:49;;;;;;;24.50;16.60;;;;;;;;;;4978749;28;20586;-58
2022/06/24 00:44:16;;;;;;;26.70;17.33;;;;;;;;;;4993465;28;20239;-62
2022/06/24 00:46:44;;;;;;;24.60;16.33;;;;;;;;;;4992699;28;20200;-59
2022/06/24 00:49:10;;;;;;;29.40;18.10;;;;;;;;;;4995846;28;20187;-59
2022/06/24 00:51:37;;;;;;;28.48;18.95;;;;;;;;;;5013203;28;20255;-59
2022/06/24 00:54:13;;;;;;;26.42;18.88;;;;;;;;;;4994291;28;20246;-59
2022/06/24 00:56:39;;;;;;;22.65;17.95;;;;;;;;;;5013150;28;20188;-59
2022/06/24 00:59:07;;;;;;;28.00;19.65;;;;;;;;;;4995361;28;20228;-59
2022/06/24 01:01:34;;;;;;;24.65;18.35;;;;;;;;;;5013223;28;20239;-59
2022/06/24 01:04:01;;;;;;;26.63;19.13;;;;;;;;;;5011968;28;20644;-59
2022/06/24 01:06:28;;;;;;;24.90;18.75;;;;;;;;;;5012859;28;20632;-59
2022/06/24 01:08:54;;;;;;;27.30;18.90;;;;;;;;;;4995191;28;20302;-61
2022/06/24 01:11:27;;;;;;;27.10;19.80;;;;;;;;;;5011904;28;20284;-62
2022/06/24 01:13:53;;;;;;;25.80;19.42;;;;;;;;;;5013232;28;20184;-60
2022/06/24 01:16:21;;;;;;;26.77;19.40;;;;;;;;;;5011656;28;20212;-60
2022/06/24 01:18:50;;;;;;;24.75;20.35;;;;;;;;;;4992376;28;20184;-59
2022/06/24 01:21:33;;;;;;;25.20;19.65;;;;;;;;;;5013082;28;20183;-59
2022/06/24 01:24:03;;;;;;;31.45;21.73;;;;;;;;;;5013984;28;20204;-59
2022/06/24 01:26:29;;;;;;;27.80;21.50;;;;;;;;;;5016783;28;20196;-59
2022/06/24 01:28:56;;;;;;;27.52;21.08;;;;;;;;;;4982253;28;20181;-60
2022/06/24 01:31:22;;;;;;;31.58;21.60;;;;;;;;;;5016719;28;20528;-60
2022/06/24 01:33:48;;;;;;;30.08;19.73;;;;;;;;;;4998684;28;20595;-59
2022/06/24 01:36:14;;;;;;;27.50;19.05;;;;;;;;;;5016476;28;20288;-59
2022/06/24 01:38:40;;;;;;;24.83;18.67;;;;;;;;;;5015608;28;20238;-59
2022/06/24 01:41:08;;;;;;;22.65;16.50;;;;;;;;;;5015965;28;20180;-59
2022/06/24 01:43:34;;;;;;;27.38;18.98;;;;;;;;;;5016383;28;20561;-59
2022/06/24 01:46:01;;;;;;;34.67;22.88;;;;;;;;;;5016052;28;20256;-59
2022/06/24 01:48:27;;;;;;;42.90;26.85;;;;;;;;;;5015613;28;20185;-58
2022/06/24 01:50:53;;;;;;;40.00;27.70;;;;;;;;;;5016357;28;20318;-58
2022/06/24 01:53:19;;;;;;;43.20;26.02;;;;;;;;;;5015819;28;20207;-57
2022/06/24 01:55:45;;;;;;;42.22;26.90;;;;;;;;;;5015922;28;20205;-57
2022/06/24 01:58:11;;;;;;;36.90;24.63;;;;;;;;;;4998812;28;20185;-56
2022/06/24 02:00:37;;;;;;;31.52;19.90;;;;;;;;;;5015008;28;20275;-56
2022/06/24 02:03:07;;;;;;;49.78;16.20;;;;;;;;;;4998760;28;20747;-57
2022/06/24 02:05:33;;;;;;;26.40;13.48;;;;;;;;;;5015109;28;20185;-58
2022/06/24 02:07:59;;;;;;;24.27;13.90;;;;;;;;;;5015679;28;20278;-59
2022/06/24 02:13:27;;;;;;;31.73;20.92;;;;;;;;;;5015855;28;20192;-58
2022/06/24 02:16:04;;;;;;;36.05;25.35;;;;;;;;;;5015380;28;20763;-57
2022/06/24 02:18:31;;;;;;;47.00;28.58;;;;;;;;;;5015576;28;20210;-58
2022/06/24 02:20:58;;;;;;;49.08;29.08;;;;;;;;;;5014929;28;20660;-59
2022/06/24 02:23:24;;;;;;;45.95;30.35;;;;;;;;;;5015612;28;20560;-58
2022/06/24 02:25:51;;;;;;;43.60;29.17;;;;;;;;;;4997840;28;20246;-58
2022/06/24 02:28:17;;;;;;;43.42;29.67;;;;;;;;;;4998211;28;20702;-58
2022/06/24 02:30:44;;;;;;;37.05;26.52;;;;;;;;;;5014738;28;20185;-59
2022/06/24 02:33:11;;;;;;;42.10;27.10;;;;;;;;;;4997985;28;20640;-59
2022/06/24 02:35:37;;;;;;;50.50;29.45;;;;;;;;;;4996345;28;20247;-59
2022/06/24 02:38:03;;;;;;;43.70;29.42;;;;;;;;;;5015417;28;20196;-58
2022/06/24 02:40:45;;;;;;;45.67;28.77;;;;;;;;;;5015117;28;20188;-58
2022/06/24 02:43:32;;;;;;;41.97;28.73;;;;;;;;;;5015671;28;20612;-57
2022/06/24 02:46:01;;;;;;;45.80;29.02;;;;;;;;;;5014570;28;20188;-58
2022/06/24 02:48:28;;;;;;;47.72;30.27;;;;;;;;;;4997943;28;20184;-58
2022/06/24 02:50:55;;;;;;;41.78;29.65;;;;;;;;;;5014467;28;20187;-63
2022/06/24 02:53:21;;;;;;;43.25;28.55;;;;;;;;;;4997702;28;20185;-58
2022/06/24 02:55:49;;;;;;;45.35;28.25;;;;;;;;;;4996372;28;20208;-58
2022/06/24 02:58:15;;;;;;;49.00;29.35;;;;;;;;;;5015102;28;20173;-59
2022/06/24 03:00:42;;;;;;;40.33;27.90;;;;;;;;;;5015123;28;20169;-58
2022/06/24 03:03:12;;;;;;;42.15;27.83;;;;;;;;;;5014419;28;20243;-59
2022/06/24 03:05:38;;;;;;;41.05;27.33;;;;;;;;;;4996583;28;20560;-57
2022/06/24 03:08:04;;;;;;;40.15;26.88;;;;;;;;;;5014985;28;20220;-60
2022/06/24 03:10:31;;;;;;;35.60;23.65;;;;;;;;;;5014264;28;20176;-59
2022/06/24 03:12:57;;;;;;;35.72;23.30;;;;;;;;;;4997370;28;20211;-59
2022/06/24 03:15:23;;;;;;;35.67;23.90;;;;;;;;;;4997219;28;20228;-64
2022/06/24 03:17:49;;;;;;;34.42;22.40;;;;;;;;;;5014534;28;20184;-58
2022/06/24 03:20:15;;;;;;;32.50;21.95;;;;;;;;;;5013557;28;20188;-58
2022/06/24 03:22:41;;;;;;;34.80;21.85;;;;;;;;;;5014227;28;20185;-59
2022/06/24 03:25:08;;;;;;;30.45;20.20;;;;;;;;;;5014585;28;20275;-58
2022/06/24 03:27:35;;;;;;;31.38;19.15;;;;;;;;;;5014182;28;20731;-59
2022/06/24 03:30:01;;;;;;;33.22;19.90;;;;;;;;;;4995769;28;20184;-61
2022/06/24 03:32:27;;;;;;;34.15;18.25;;;;;;;;;;5014385;28;20184;-58
2022/06/24 03:34:53;;;;;;;32.15;19.52;;;;;;;;;;4996142;28;20212;-58
2022/06/24 03:37:20;;;;;;;40.33;19.20;;;;;;;;;;5014041;28;20185;-58
2022/06/24 03:39:46;;;;;;;34.40;19.00;;;;;;;;;;5014242;28;20185;-59
2022/06/24 03:42:12;;;;;;;33.42;18.95;;;;;;;;;;5012709;28;20191;-59
2022/06/24 03:44:38;;;;;;;32.00;18.48;;;;;;;;;;4996885;28;20192;-58
2022/06/24 03:47:04;;;;;;;32.78;18.42;;;;;;;;;;5012949;28;20275;-58
2022/06/24 03:49:30;;;;;;;28.45;16.73;;;;;;;;;;5013785;28;20172;-58
2022/06/24 03:51:57;;;;;;;37.83;18.08;;;;;;;;;;5013126;28;20528;-59
2022/06/24 03:54:23;;;;;;;29.42;18.13;;;;;;;;;;5013394;28;20184;-57
2022/06/24 03:56:49;;;;;;;29.20;19.13;;;;;;;;;;4996408;28;20262;-59
2022/06/24 03:59:15;;;;;;;31.27;20.92;;;;;;;;;;5013281;28;20211;-57
2022/06/24 04:01:41;;;;;;;36.15;21.25;;;;;;;;;;5013230;28;20199;-59
2022/06/24 04:04:07;;;;;;;35.25;22.35;;;;;;;;;;5013440;28;20172;-58
2022/06/24 04:06:33;;;;;;;45.63;25.50;;;;;;;;;;4980481;28;20191;-58
2022/06/24 04:09:00;;;;;;;41.10;23.85;;;;;;;;;;5012620;28;20252;-58
2022/06/24 04:11:26;;;;;;;42.20;25.13;;;;;;;;;;5011923;28;20283;-58
2022/06/24 04:13:52;;;;;;;42.05;26.05;;;;;;;;;;4995800;28;20181;-62
2022/06/24 04:16:18;;;;;;;42.10;24.95;;;;;;;;;;5013597;28;20671;-59
2022/06/24 04:18:44;;;;;;;32.42;22.30;;;;;;;;;;4995280;28;20189;-59
2022/06/24 04:21:11;;;;;;;31.60;19.95;;;;;;;;;;4994394;28;20243;-59
2022/06/24 04:23:38;;;;;;;33.20;20.38;;;;;;;;;;5013585;28;20169;-60
2022/06/24 04:26:04;;;;;;;33.60;20.60;;;;;;;;;;5014068;28;20276;-59
2022/06/24 04:28:30;;;;;;;37.28;20.45;;;;;;;;;;5013744;28;20793;-60
2022/06/24 04:30:56;;;;;;;31.23;19.98;;;;;;;;;;4994876;28;20192;-66
2022/06/24 04:33:22;;;;;;;36.15;19.90;;;;;;;;;;5013093;28;20192;-59
2022/06/24 04:35:48;;;;;;;31.63;19.23;;;;;;;;;;5012804;28;20285;-59
2022/06/24 04:38:15;;;;;;;26.30;18.88;;;;;;;;;;4995428;28;20196;-59
2022/06/24 04:40:41;;;;;;;29.13;18.80;;;;;;;;;;5011052;28;20640;-58
2022/06/24 04:43:10;;;;;;;35.30;17.40;;;;;;;;;;5013113;28;20180;-59
2022/06/24 04:45:37;;;;;;;30.60;17.65;;;;;;;;;;4995422;28;20188;-59
2022/06/24 04:48:03;;;;;;;34.03;17.90;;;;;;;;;;4979273;28;20184;-59
2022/06/24 04:50:30;;;;;;;31.00;18.17;;;;;;;;;;5009731;28;20172;-58
2022/06/24 04:52:56;;;;;;;31.65;18.52;;;;;;;;;;4975893;28;20185;-59
2022/06/24 04:55:22;;;;;;;33.88;17.38;;;;;;;;;;4984670;28;20315;-58
2022/06/24 04:57:48;;;;;;;27.60;17.25;;;;;;;;;;4995371;28;20203;-56
2022/06/24 05:00:15;;;;;;;31.52;16.27;;;;;;;;;;5017259;28;20234;-59
2022/06/24 05:02:41;;;;;;;25.60;15.52;;;;;;;;;;5019381;28;20199;-57
2022/06/24 05:05:11;;;;;;;25.70;14.57;;;;;;;;;;5018828;28;20275;-60
2022/06/24 05:07:38;;;;;;;29.55;15.52;;;;;;;;;;5018937;28;20667;-59
2022/06/24 05:10:04;;;;;;;21.88;15.00;;;;;;;;;;5017392;28;20251;-59
2022/06/24 05:12:30;;;;;;;31.55;16.92;;;;;;;;;;5019173;28;20181;-59
2022/06/24 05:14:57;;;;;;;30.75;19.05;;;;;;;;;;5002031;28;20310;-59
2022/06/24 05:17:23;;;;;;;33.65;20.58;;;;;;;;;;5001696;28;20208;-59
2022/06/24 05:19:49;;;;;;;34.53;21.52;;;;;;;;;;5017934;28;20628;-59
2022/06/24 05:22:15;;;;;;;39.60;19.73;;;;;;;;;;4985307;28;20181;-59
2022/06/24 05:24:43;;;;;;;30.88;16.40;;;;;;;;;;5019304;28;20652;-59
2022/06/24 05:27:09;;;;;;;25.88;15.93;;;;;;;;;;5019175;28;20168;-59
2022/06/24 05:29:35;;;;;;;27.27;14.52;;;;;;;;;;4983297;28;20188;-62
2022/06/24 05:32:01;;;;;;;22.60;14.85;;;;;;;;;;4999511;28;20234;-60
2022/06/24 05:34:27;;;;;;;21.75;13.52;;;;;;;;;;5018494;28;20189;-59
2022/06/24 05:36:53;;;;;;;22.88;13.77;;;;;;;;;;5019194;28;20250;-58
2022/06/24 05:39:19;;;;;;;23.08;14.65;;;;;;;;;;5018343;28;20191;-61
2022/06/24 05:41:46;;;;;;;26.75;15.43;;;;;;;;;;5001622;28;20203;-59
2022/06/24 05:44:12;;;;;;;24.00;15.50;;;;;;;;;;5018358;28;20220;-63
2022/06/24 05:46:38;;;;;;;32.75;15.27;;;;;;;;;;5001594;28;20251;-60
2022/06/24 05:49:05;;;;;;;24.38;14.55;;;;;;;;;;5000086;28;20180;-60
2022/06/24 05:51:34;;;;;;;28.95;16.42;;;;;;;;;;5019099;28;20183;-59
2022/06/24 05:56:46;;;;;;;23.92;15.48;;;;;;;;;;5019058;28;20559;-59
2022/06/24 05:59:12;;;;;;;24.15;15.85;;;;;;;;;;5018023;28;20235;-59
2022/06/24 06:01:38;;;;;;;30.90;15.57;;;;;;;;;;5018827;28;20171;-59
2022/06/24 06:04:04;;;;;;;25.08;15.48;;;;;;;;;;5016971;28;20219;-59
2022/06/24 06:06:30;;;;;;;25.63;14.43;;;;;;;;;;5001117;28;20216;-59
2022/06/24 06:08:57;;;;;;;28.33;15.68;;;;;;;;;;5018692;28;20232;-59
2022/06/24 06:11:24;;;;;;;29.42;16.30;;;;;;;;;;5015034;28;20185;-59
2022/06/24 06:13:51;;;;;;;30.50;15.05;;;;;;;;;;4996103;28;20774;-58
2022/06/24 06:16:18;;;;;;;23.95;15.32;;;;;;;;;;5015639;28;20713;-59
2022/06/24 06:18:44;;;;;;;24.15;13.45;;;;;;;;;;5015693;28;20264;-59
2022/06/24 06:21:11;;;;;;;29.42;13.68;;;;;;;;;;5015980;28;20184;-59
2022/06/24 06:23:38;;;;;;;26.83;14.43;;;;;;;;;;5014974;28;20651;-58
2022/06/24 06:26:05;;;;;;;28.52;11.95;;;;;;;;;;5014984;28;20651;-59
2022/06/24 06:28:31;;;;;;;27.15;14.43;;;;;;;;;;4997920;28;20631;-60
2022/06/24 06:30:58;;;;;;;26.77;14.35;;;;;;;;;;5015427;28;20192;-58
2022/06/24 06:33:24;;;;;;;27.60;14.23;;;;;;;;;;4996753;28;20662;-59
2022/06/24 06:35:50;;;;;;;26.92;14.35;;;;;;;;;;5014672;28;20204;-58
2022/06/24 06:38:16;;;;;;;26.73;14.52;;;;;;;;;;4997823;28;20203;-58
2022/06/24 06:40:43;;;;;;;31.08;17.10;;;;;;;;;;4981163;28;20188;-58
2022/06/24 06:43:09;;;;;;;23.05;15.60;;;;;;;;;;4996934;28;20216;-60
2022/06/24 06:45:36;;;;;;;28.13;16.67;;;;;;;;;;5014362;28;20662;-58
2022/06/24 06:48:03;;;;;;;27.30;16.45;;;;;;;;;;4997243;28;20644;-59
2022/06/24 06:50:29;;;;;;;28.08;17.40;;;;;;;;;;5015129;28;20644;-58
2022/06/24 06:52:55;;;;;;;31.58;19.02;;;;;;;;;;5014424;28;20187;-57
2022/06/24 06:55:22;;;;;;;29.95;18.90;;;;;;;;;;5014035;28;20219;-59
2022/06/24 06:57:48;;;;;;;42.55;23.02;;;;;;;;;;4996677;28;20703;-59
2022/06/24 07:00:15;;;;;;;38.40;21.33;;;;;;;;;;5012979;28;21688;-59
2022/06/24 07:02:41;;;;;;;37.42;22.48;;;;;;;;;;4997412;28;20295;-59
2022/06/24 07:05:07;;;;;;;36.65;23.75;;;;;;;;;;5014341;28;20168;-58
2022/06/24 07:07:34;;;;;;;35.92;23.67;;;;;;;;;;4996539;28;20189;-59
2022/06/24 07:10:00;;;;;;;48.63;27.23;;;;;;;;;;4996941;28;20184;-58
2022/06/24 07:12:27;;;;;;;52.55;26.13;;;;;;;;;;5013251;28;20192;-59
2022/06/24 07:14:53;;;;;;;44.95;26.02;;;;;;;;;;4996681;28;20680;-60
2022/06/24 07:17:19;;;;;;;42.85;26.05;;;;;;;;;;5014719;28;20180;-59
2022/06/24 07:19:46;;;;;;;49.92;26.67;;;;;;;;;;5014448;28;20703;-58
2022/06/24 07:22:12;;;;;;;47.72;27.70;;;;;;;;;;5013314;28;20260;-60
2022/06/24 07:24:39;;;;;;;50.15;26.02;;;;;;;;;;5014190;28;20188;-59
2022/06/24 07:27:06;;;;;;;47.50;25.90;;;;;;;;;;5013840;28;20172;-58
2022/06/24 07:29:33;;;;;;;40.88;21.80;;;;;;;;;;4996874;28;20628;-59
2022/06/24 07:32:03;;;;;;;38.67;20.60;;;;;;;;;;4976145;28;20193;-59
2022/06/24 07:34:32;;;;;;;36.03;20.15;;;;;;;;;;4993092;28;20189;-59
2022/06/24 07:36:58;;;;;;;34.55;19.67;;;;;;;;;;4994836;28;20193;-59
2022/06/24 07:39:24;;;;;;;36.20;20.58;;;;;;;;;;4994646;28;20625;-59
2022/06/24 07:41:51;;;;;;;30.15;19.13;;;;;;;;;;5007416;28;20680;-59
2022/06/24 07:44:17;;;;;;;33.80;19.23;;;;;;;;;;5014172;28;20180;-59
2022/06/24 07:46:43;;;;;;;34.13;18.40;;;;;;;;;;5013197;28;20188;-59
2022/06/24 07:49:09;;;;;;;31.48;19.02;;;;;;;;;;5012222;28;20723;-59
2022/06/24 07:51:35;;;;;;;36.00;19.13;;;;;;;;;;5013718;28;20181;-58
2022/06/24 07:54:01;;;;;;;33.88;19.20;;;;;;;;;;5014015;28;20268;-59
2022/06/24 07:59:12;;;;;;;23.40;15.75;;;;;;;;;;5013073;28;20673;-59
2022/06/24 08:01:39;;;;;;;17.30;12.75;;;;;;;;;;5013309;28;20192;-59
2022/06/24 08:04:07;;;;;;;17.48;12.40;;;;;;;;;;5013062;28;20730;-59
2022/06/24 08:06:35;;;;;;;15.85;11.15;;;;;;;;;;5013133;28;20275;-63
2022/06/24 08:09:01;;;;;;;16.02;10.95;;;;;;;;;;5012739;28;20228;-59
2022/06/24 08:11:28;;;;;;;14.02;10.38;;;;;;;;;;4979952;28;20177;-59
2022/06/24 08:13:55;;;;;;;16.35;10.32;;;;;;;;;;4996110;28;20192;-59
2022/06/24 08:16:22;;;;;;;12.75;10.23;;;;;;;;;;5013514;28;20212;-59
2022/06/24 08:18:49;;;;;;;16.80;11.07;;;;;;;;;;5012023;28;20192;-59
2022/06/24 08:21:15;;;;;;;22.98;13.43;;;;;;;;;;5013071;28;20243;-59
2022/06/24 08:23:41;;;;;;;21.45;14.55;;;;;;;;;;4995429;28;20188;-59
2022/06/24 08:26:07;;;;;;;23.48;16.02;;;;;;;;;;4996439;28;20181;-59
2022/06/24 08:28:33;;;;;;;24.17;17.67;;;;;;;;;;5012138;28;20211;-59
2022/06/24 08:31:01;;;;;;;28.17;18.30;;;;;;;;;;4995221;28;20793;-59
2022/06/24 08:33:27;;;;;;;26.33;18.60;;;;;;;;;;4994526;28;20181;-59
2022/06/24 08:35:53;;;;;;;29.30;19.73;;;;;;;;;;5012177;28;20212;-59
2022/06/24 08:38:19;;;;;;;31.92;21.52;;;;;;;;;;5012202;28;20239;-58
2022/06/24 08:40:47;;;;;;;33.30;21.83;;;;;;;;;;5013134;28;20569;-59
2022/06/24 08:43:13;;;;;;;33.50;23.83;;;;;;;;;;4979485;28;20195;-59
2022/06/24 08:45:40;;;;;;;34.42;24.52;;;;;;;;;;4995212;28;20196;-58
2022/06/24 08:48:10;;;;;;;34.70;24.70;;;;;;;;;;5012991;28;20207;-59
2022/06/24 08:50:36;;;;;;;33.97;24.85;;;;;;;;;;4993703;28;20200;-59
2022/06/24 08:53:06;;;;;;;37.55;25.85;;;;;;;;;;5000777;28;20184;-59
2022/06/24 08:55:40;;;;;;;41.70;27.05;;;;;;;;;;4993672;28;20239;-61
2022/06/24 08:58:07;;;;;;;43.45;27.70;;;;;;;;;;4992034;28;20188;-58
2022/06/24 09:00:33;;;;;;;42.42;28.70;;;;;;;;;;5004212;28;20191;-58
2022/06/24 09:02:59;;;;;;;46.47;28.88;;;;;;;;;;4978919;28;20218;-59
2022/06/24 09:05:28;;;;;;;45.08;27.73;;;;;;;;;;4993824;28;20553;-58
2022/06/24 09:08:04;;;;;;;43.45;28.60;;;;;;;;;;5012082;28;20307;-59
2022/06/24 09:10:31;;;;;;;39.45;27.98;;;;;;;;;;4993698;28;20662;-60
2022/06/24 09:12:57;;;;;;;38.42;28.45;;;;;;;;;;4993717;28;20544;-59
2022/06/24 09:15:23;;;;;;;45.70;27.73;;;;;;;;;;5011852;28;20204;-60
2022/06/24 09:17:49;;;;;;;45.08;29.15;;;;;;;;;;5012619;28;20181;-59
2022/06/24 09:20:17;;;;;;;43.83;30.73;;;;;;;;;;4995524;28;20636;-59
2022/06/24 09:22:43;;;;;;;45.47;30.73;;;;;;;;;;5012900;28;20188;-59
2022/06/24 09:25:09;;;;;;;47.70;30.85;;;;;;;;;;5011974;28;20197;-59
2022/06/24 09:27:36;;;;;;;50.47;30.60;;;;;;;;;;4977516;28;20242;-59
2022/06/24 09:30:02;;;;;;;48.58;30.05;;;;;;;;;;5012320;28;20180;-59
2022/06/24 09:32:28;;;;;;;44.53;29.73;;;;;;;;;;5012662;28;20180;-59
2022/06/24 09:35:05;;;;;;;33.50;24.60;;;;;;;;;;5011137;28;20213;-59
2022/06/24 09:37:34;;;;;;;32.95;22.20;;;;;;;;;;5012688;28;20260;-59
2022/06/24 09:40:20;;;;;;;24.67;16.67;;;;;;;;;;4994819;28;20283;-60
2022/06/24 09:42:53;;;;;;;26.35;17.95;;;;;;;;;;5012486;28;20180;-59
2022/06/24 09:45:19;;;;;;;26.40;17.98;;;;;;;;;;4978205;28;20203;-59
2022/06/24 09:47:49;;;;;;;25.08;18.20;;;;;;;;;;5016295;28;20664;-59
2022/06/24 09:50:16;;;;;;;31.83;20.27;;;;;;;;;;4998437;28;20187;-59
2022/06/24 09:52:43;;;;;;;31.55;20.20;;;;;;;;;;5016038;28;20259;-60
2022/06/24 09:55:12;;;;;;;28.23;19.27;;;;;;;;;;5014530;28;20279;-60
2022/06/24 09:57:40;;;;;;;36.38;19.30;;;;;;;;;;5016150;28;20212;-59
2022/06/24 10:02:52;;;;;;;23.45;16.92;;;;;;;;;;5016302;28;20200;-59
2022/06/24 10:05:19;;;;;;;22.65;15.52;;;;;;;;;;5015069;28;20204;-59
2022/06/24 10:07:47;;;;;;;22.45;14.55;;;;;;;;;;5014876;28;20177;-59
2022/06/24 10:10:14;;;;;;;22.50;13.30;;;;;;;;;;4997843;28;20191;-59
2022/06/24 10:12:44;;;;;;;18.23;12.57;;;;;;;;;;5015427;28;20246;-59
2022/06/24 10:15:10;;;;;;;20.42;11.60;;;;;;;;;;5015553;28;20250;-59
2022/06/24 10:17:37;;;;;;;21.42;12.18;;;;;;;;;;4998167;28;20739;-59
2022/06/24 10:20:04;;;;;;;18.02;11.15;;;;;;;;;;4997848;28;20211;-60
2022/06/24 10:22:37;;;;;;;16.13;10.48;;;;;;;;;;4992515;28;20185;-61
2022/06/24 10:25:04;;;;;;;18.08;10.82;;;;;;;;;;5006107;28;20189;-59
2022/06/24 10:27:56;;;;;;;19.05;12.30;;;;;;;;;;5015550;28;20177;-59
2022/06/24 10:30:40;;;;;;;21.77;10.68;;;;;;;;;;4982823;28;20196;-59
2022/06/24 10:33:13;;;;;;;14.65;10.10;;;;;;;;;;4998077;28;20243;-59
2022/06/24 10:35:58;;;;;;;16.10;9.82;;;;;;;;;;4976381;28;20676;-59
2022/06/24 10:38:25;;;;;;;12.70;7.55;;;;;;;;;;5009140;28;20185;-59
2022/06/24 10:40:52;;;;;;;14.23;8.95;;;;;;;;;;5014273;28;20173;-60
2022/06/24 10:43:37;;;;;;;13.88;8.43;;;;;;;;;;5015125;28;20177;-59
2022/06/24 10:46:29;;;;;;;17.17;9.68;;;;;;;;;;5014978;28;20320;-59
2022/06/24 10:48:55;;;;;;;15.02;8.50;;;;;;;;;;5009995;28;20288;-60
2022/06/24 10:51:22;;;;;;;12.98;8.07;;;;;;;;;;4977556;28;20177;-59
2022/06/24 10:54:09;;;;;;;15.98;8.40;;;;;;;;;;4995391;28;20177;-60
2022/06/24 10:56:51;;;;;;;11.77;6.90;;;;;;;;;;5008381;28;20231;-59
2022/06/24 10:59:19;;;;;;;12.10;7.28;;;;;;;;;;5012018;28;20193;-59
2022/06/24 11:01:49;;;;;;;9.45;7.03;;;;;;;;;;4968401;28;20190;-62
2022/06/24 11:04:17;;;;;;;13.50;7.13;;;;;;;;;;4996505;28;20195;-59
2022/06/24 11:07:02;;;;;;;12.48;6.65;;;;;;;;;;5011473;28;20180;-61
2022/06/24 11:09:28;;;;;;;15.15;8.30;;;;;;;;;;5013781;28;20239;-59
2022/06/24 11:11:54;;;;;;;10.50;6.38;;;;;;;;;;5013154;28;20187;-60
2022/06/24 11:14:26;;;;;;;9.57;6.88;;;;;;;;;;4996820;28;20177;-60
2022/06/24 11:16:53;;;;;;;14.75;6.50;;;;;;;;;;5014923;28;20192;-63
2022/06/24 11:19:19;;;;;;;12.52;6.50;;;;;;;;;;5012690;28;20195;-59
2022/06/24 11:21:46;;;;;;;10.80;5.70;;;;;;;;;;4997145;28;20185;-60
2022/06/24 11:24:13;;;;;;;11.80;5.28;;;;;;;;;;5014306;28;20255;-60
2022/06/24 11:26:39;;;;;;;9.30;5.13;;;;;;;;;;5014028;28;20242;-60
2022/06/24 11:29:05;;;;;;;9.93;5.50;;;;;;;;;;5012683;28;20176;-60
2022/06/24 11:31:33;;;;;;;11.48;5.22;;;;;;;;;;5014614;28;20259;-59
2022/06/24 11:34:03;;;;;;;12.05;5.20;;;;;;;;;;4996829;28;20195;-60
2022/06/24 11:36:31;;;;;;;10.10;5.22;;;;;;;;;;5013876;28;20254;-60
2022/06/24 11:38:58;;;;;;;10.32;5.70;;;;;;;;;;5013309;28;20195;-59
2022/06/24 11:41:25;;;;;;;15.27;6.75;;;;;;;;;;5014078;28;20180;-60
2022/06/24 11:43:51;;;;;;;13.60;6.00;;;;;;;;;;5015002;28;20172;-60
2022/06/24 11:46:17;;;;;;;9.85;5.07;;;;;;;;;;5013565;28;20214;-61
2022/06/24 11:48:44;;;;;;;7.80;5.20;;;;;;;;;;4997023;28;20207;-60
2022/06/24 11:51:20;;;;;;;14.60;5.13;;;;;;;;;;5013413;28;20644;-60
2022/06/24 11:53:59;;;;;;;13.07;4.55;;;;;;;;;;5014859;28;20184;-59
2022/06/24 11:56:28;;;;;;;9.70;4.25;;;;;;;;;;5013822;28;20325;-59
2022/06/24 11:58:55;;;;;;;12.68;4.70;;;;;;;;;;4996371;28;20254;-60
2022/06/24 12:01:22;;;;;;;9.40;4.45;;;;;;;;;;5012840;28;20180;-59
2022/06/24 12:03:50;;;;;;;11.82;4.43;;;;;;;;;;5013983;28;20203;-59
2022/06/24 12:06:17;;;;;;;10.60;4.20;;;;;;;;;;4995784;28;20185;-59
2022/06/24 12:08:44;;;;;;;6.32;4.43;;;;;;;;;;5011829;28;20228;-60
2022/06/24 12:11:18;;;;;;;9.88;4.22;;;;;;;;;;4987557;28;20196;-60
2022/06/24 12:13:55;;;;;;;9.65;3.90;;;;;;;;;;5008110;28;20188;-60
2022/06/24 12:16:22;;;;;;;9.18;4.15;;;;;;;;;;5013069;28;20266;-58
2022/06/24 12:18:48;;;;;;;9.65;3.90;;;;;;;;;;5013553;28;20302;-59
2022/06/24 12:21:14;;;;;;;10.15;4.20;;;;;;;;;;4993929;28;20184;-59
2022/06/24 12:23:44;;;;;;;7.05;4.03;;;;;;;;;;5013788;28;20192;-58
2022/06/24 12:26:18;;;;;;;8.70;4.07;;;;;;;;;;4995377;28;20584;-59
2022/06/24 12:28:45;;;;;;;6.65;3.97;;;;;;;;;;4994846;28;20173;-59
2022/06/24 12:31:12;;;;;;;9.90;4.38;;;;;;;;;;5012859;28;20274;-62
2022/06/24 12:33:41;;;;;;;7.22;3.80;;;;;;;;;;4994662;28;20652;-59
2022/06/24 12:36:10;;;;;;;8.18;4.60;;;;;;;;;;5012063;28;20220;-60
2022/06/24 12:38:40;;;;;;;14.20;4.13;;;;;;;;;;5013325;28;20187;-59
2022/06/24 12:41:07;;;;;;;10.82;3.85;;;;;;;;;;5012341;28;20279;-59
2022/06/24 12:43:34;;;;;;;8.30;3.95;;;;;;;;;;4993994;28;20609;-59
2022/06/24 12:46:03;;;;;;;6.22;3.78;;;;;;;;;;5012421;28;20648;-59
2022/06/24 12:51:13;;;;;;;6.85;3.95;;;;;;;;;;4995646;28;20292;-59
2022/06/24 12:53:45;;;;;;;4.57;3.42;;;;;;;;;;4994892;28;20199;-59
2022/06/24 12:56:11;;;;;;;6.75;3.88;;;;;;;;;;5012404;28;20212;-59
2022/06/24 12:58:38;;;;;;;15.73;4.15;;;;;;;;;;4995086;28;20193;-60
2022/06/24 13:01:04;;;;;;;10.48;5.05;;;;;;;;;;4995486;28;20195;-59
2022/06/24 13:03:30;;;;;;;8.88;4.75;;;;;;;;;;5011139;28;20180;-59
2022/06/24 13:05:56;;;;;;;9.10;4.55;;;;;;;;;;4994812;28;20275;-59
2022/06/24 13:08:22;;;;;;;11.43;6.07;;;;;;;;;;4994472;28;20255;-59
2022/06/24 13:10:49;;;;;;;12.25;5.72;;;;;;;;;;5013275;28;20207;-59
2022/06/24 13:13:15;;;;;;;9.98;5.78;;;;;;;;;;5012214;28;20632;-59
2022/06/24 13:15:41;;;;;;;8.63;5.68;;;;;;;;;;5012886;28;20200;-60
2022/06/24 13:18:07;;;;;;;9.07;5.63;;;;;;;;;;5012210;28;20192;-60
2022/06/24 13:20:33;;;;;;;16.77;5.00;;;;;;;;;;5013013;28;20271;-61
2022/06/24 13:23:00;;;;;;;7.85;3.88;;;;;;;;;;5016835;28;20252;-59
2022/06/24 13:25:26;;;;;;;10.25;4.32;;;;;;;;;;5015666;28;20223;-59
2022/06/24 13:27:53;;;;;;;8.25;4.32;;;;;;;;;;4998896;28;20188;-61
2022/06/24 13:30:19;;;;;;;11.20;4.43;;;;;;;;;;4998320;28;20274;-59
2022/06/24 13:32:45;;;;;;;8.98;4.05;;;;;;;;;;4999025;28;20184;-60
2022/06/24 13:35:12;;;;;;;7.57;3.75;;;;;;;;;;4997893;28;20196;-58
2022/06/24 13:37:39;;;;;;;8.40;3.40;;;;;;;;;;5016256;28;20216;-60
2022/06/24 13:40:05;;;;;;;6.25;2.63;;;;;;;;;;5015365;28;20639;-60
2022/06/24 13:42:34;;;;;;;6.28;2.88;;;;;;;;;;5016086;28;20199;-59
2022/06/24 13:45:01;;;;;;;3.22;2.63;;;;;;;;;;5016242;28;20200;-60
2022/06/24 13:47:28;;;;;;;7.05;2.70;;;;;;;;;;5015240;28;20632;-60
2022/06/24 13:49:58;;;;;;;8.80;2.50;;;;;;;;;;5015271;28;20192;-60
2022/06/24 13:52:25;;;;;;;4.30;2.08;;;;;;;;;;5015834;28;20188;-60
2022/06/24 13:54:51;;;;;;;5.72;2.70;;;;;;;;;;5016086;28;20253;-60
2022/06/24 13:57:17;;;;;;;4.93;2.83;;;;;;;;;;4998383;28;20211;-59
2022/06/24 13:59:44;;;;;;;10.38;3.08;;;;;;;;;;4995815;28;20184;-59
2022/06/24 14:02:10;;;;;;;7.90;3.22;;;;;;;;;;4999314;28;20219;-59
2022/06/24 14:04:36;;;;;;;8.57;3.38;;;;;;;;;;4998123;28;20181;-59
2022/06/24 14:07:02;;;;;;;6.75;3.28;;;;;;;;;;5015713;28;20216;-59
2022/06/24 14:09:28;;;;;;;6.93;3.30;;;;;;;;;;5015373;28;20224;-59
2022/06/24 14:11:54;;;;;;;10.55;3.90;;;;;;;;;;4998121;28;20193;-59
2022/06/24 14:14:20;;;;;;;6.20;3.42;;;;;;;;;;5015928;28;20176;-61
2022/06/24 14:16:46;;;;;;;6.07;3.30;;;;;;;;;;4978520;28;20213;-59
2022/06/24 14:19:12;;;;;;;9.80;3.72;;;;;;;;;;5015252;28;20227;-59
2022/06/24 14:21:39;;;;;;;7.75;3.90;;;;;;;;;;5015063;28;20620;-59
2022/06/24 14:26:49;;;;;;;8.40;4.57;;;;;;;;;;5015251;28;20216;-59
2022/06/24 14:29:16;;;;;;;8.30;5.20;;;;;;;;;;4980041;28;20193;-59
2022/06/24 14:31:42;;;;;;;11.10;5.10;;;;;;;;;;5014616;28;20176;-58
2022/06/24 14:34:08;;;;;;;9.88;4.60;;;;;;;;;;4997980;28;20189;-59
2022/06/24 14:36:34;;;;;;;8.65;4.35;;;;;;;;;;4996982;28;20577;-60
2022/06/24 14:41:45;;;;;;;8.90;3.85;;;;;;;;;;5015441;28;20219;-59
2022/06/24 14:44:11;;;;;;;8.60;3.58;;;;;;;;;;5015176;28;20271;-59
2022/06/24 14:46:37;;;;;;;6.68;3.13;;;;;;;;;;5014062;28;20282;-59